This is the latest recevied weather packets stored in our database for station/object KG7BDA. If no packets are shown the sender has not sent any weather packets the latest 1 day(s).
| Time | Temp. | Humidity | Pressure | Rain* | Wind** | Luminosity | Snow |
|---|---|---|---|---|---|---|---|
| 1778011761 | 20.56° C | 35% | 1011.1 hPa | 0 mm | 6.26 m/s, 318° | - | - |
| 1778011400 | 20.56° C | 37% | 1010.9 hPa | 0 mm | 6.26 m/s, 283° | - | - |
| 1778011151 | 20.56° C | 36% | 1011 hPa | 0 mm | 6.26 m/s, 328° | - | - |
| 1778011040 | 20.56° C | 36% | 1011 hPa | 0 mm | 6.26 m/s, 328° | - | - |
| 1778010725 | 21.11° C | 36% | 1011 hPa | 0 mm | 5.81 m/s, 295° | - | - |
| 1778010681 | 21.11° C | 36% | 1011 hPa | 0 mm | 5.81 m/s, 295° | - | - |
| 1778010321 | 20.56° C | 36% | 1011.2 hPa | 0 mm | 5.36 m/s, 302° | - | - |
| 1778009960 | 20.56° C | 39% | 1011.1 hPa | 0 mm | 4.92 m/s, 280° | - | - |
| 1778009447 | 20.56° C | 37% | 1011.2 hPa | 0 mm | 5.81 m/s, 299° | - | - |
| 1778009241 | 20.56° C | 37% | 1011.2 hPa | 0 mm | 5.81 m/s, 299° | - | - |
| 1778008881 | 20° C | 37% | 1011.2 hPa | 0 mm | 4.02 m/s, 293° | - | - |
| 1778008520 | 20° C | 37% | 1011.3 hPa | 0 mm | 4.47 m/s, 281° | - | - |
| 1778008160 | 20° C | 37% | 1011.3 hPa | 0 mm | 5.81 m/s, 297° | - | - |
| 1778007800 | 19.44° C | 37% | 1011.4 hPa | 0 mm | 4.47 m/s, 327° | - | - |
| 1778007441 | 19.44° C | 38% | 1011.3 hPa | 0 mm | 5.36 m/s, 288° | - | - |
| 1778007080 | 19.44° C | 37% | 1011.5 hPa | 0 mm | 3.58 m/s, 317° | - | - |
| 1778006720 | 19.44° C | 37% | 1011.5 hPa | 0 mm | 4.02 m/s, 285° | - | - |
| 1778006361 | 19.44° C | 38% | 1011.6 hPa | 0 mm | 1.34 m/s, 281° | - | - |
| 1778006001 | 19.44° C | 36% | 1011.7 hPa | 0 mm | 6.26 m/s, 288° | - | - |
| 1778005640 | 18.89° C | 37% | 1011.8 hPa | 0 mm | 3.58 m/s, 334° | - | - |
| 1778005280 | 19.44° C | 39% | 1011.7 hPa | 0 mm | 4.47 m/s, 312° | - | - |
| 1778004920 | 18.89° C | 38% | 1011.7 hPa | 0 mm | 3.13 m/s, 284° | - | - |
| 1778004561 | 18.89° C | 38% | 1011.8 hPa | 0 mm | 3.58 m/s, 303° | - | - |
| 1778004200 | 18.89° C | 38% | 1011.6 hPa | 0 mm | 4.02 m/s, 294° | - | - |
| 1778003840 | 18.89° C | 38% | 1011.6 hPa | 0 mm | 1.34 m/s, 322° | - | - |
* Rain latest hour (hover to see other rain measurements)
** Current wind speed in m/s (hover to see current wind gust speed)